Time;durP1;ratioP1;P1;durP2;ratioP2;P2;SDS_P1;SDS_P2;PMS_P1;PMS_P2;Temp;Humidity;BMP_temperature;BMP_pressure;BME280_temperature;BME280_humidity;BME280_pressure;Samples;Min_cycle;Max_cycle;Signal;HPM_P1;HPM_P2
2020/12/21 00:01:50;;;;;;;59.10;29.98;;;2.90;99.90;;;;;;5071904;28;20055;-46
2020/12/21 00:04:17;;;;;;;44.83;24.92;;;2.90;99.90;;;;;;5068050;28;20047;-46
2020/12/21 00:06:44;;;;;;;33.97;21.00;;;2.80;99.90;;;;;;5067018;28;20049;-46
2020/12/21 00:09:10;;;;;;;41.55;22.65;;;2.80;99.90;;;;;;5060640;28;20044;-46
2020/12/21 00:11:39;;;;;;;40.90;24.40;;;2.90;99.90;;;;;;5069709;28;20056;-46
2020/12/21 00:14:07;;;;;;;41.53;26.83;;;2.70;99.90;;;;;;5068690;28;20063;-46
2020/12/21 00:16:37;;;;;;;38.65;21.05;;;2.70;99.90;;;;;;5057365;28;20068;-46
2020/12/21 00:19:05;;;;;;;38.80;22.05;;;2.60;99.90;;;;;;5069486;28;20489;-46
2020/12/21 00:21:32;;;;;;;43.75;26.17;;;2.70;99.90;;;;;;5080803;28;20056;-48
2020/12/21 00:23:59;;;;;;;39.47;23.95;;;2.70;99.90;;;;;;5072472;28;20059;-47
2020/12/21 00:26:25;;;;;;;38.95;22.42;;;2.50;99.90;;;;;;5072147;28;20044;-47
2020/12/21 00:28:52;;;;;;;39.50;22.08;;;2.40;99.90;;;;;;5070039;28;20053;-47
2020/12/21 00:31:32;;;;;;;37.42;22.13;;;2.30;99.90;;;;;;5072481;28;20473;-47
2020/12/21 00:34:00;;;;;;;61.42;22.20;;;2.10;99.90;;;;;;5084792;28;20048;-46
2020/12/21 00:36:28;;;;;;;44.55;22.65;;;1.80;99.90;;;;;;5066748;28;20065;-47
2020/12/21 00:38:57;;;;;;;46.22;23.85;;;1.70;99.90;;;;;;5059281;28;20060;-47
2020/12/21 00:41:24;;;;;;;45.00;23.13;;;1.60;99.90;;;;;;5069651;28;20466;-46
2020/12/21 00:43:51;;;;;;;42.40;23.90;;;1.60;99.90;;;;;;5062431;28;20052;-46
2020/12/21 00:46:24;;;;;;;51.65;23.60;;;1.60;99.90;;;;;;5070681;28;20040;-46
2020/12/21 00:48:52;;;;;;;85.55;27.67;;;1.70;99.90;;;;;;5072079;28;20048;-47
2020/12/21 00:51:19;;;;;;;61.10;25.05;;;1.70;99.90;;;;;;5071946;28;20482;-46
2020/12/21 00:53:46;;;;;;;56.05;21.90;;;1.90;99.90;;;;;;5068581;28;20122;-47
2020/12/21 00:56:14;;;;;;;48.28;22.48;;;1.90;99.90;;;;;;5066000;28;20512;-48
2020/12/21 00:58:41;;;;;;;80.05;24.98;;;1.90;99.90;;;;;;5072522;28;20413;-46
2020/12/21 01:01:11;;;;;;;31.13;17.05;;;2.00;99.90;;;;;;5078403;28;20417;-46
2020/12/21 01:03:57;;;;;;;22.67;16.13;;;1.90;99.90;;;;;;5061019;28;20128;-46
2020/12/21 01:06:24;;;;;;;19.17;13.95;;;2.00;99.90;;;;;;5068649;28;20049;-47
2020/12/21 01:08:55;;;;;;;20.70;14.27;;;2.20;99.90;;;;;;5072366;28;20282;-47
2020/12/21 01:11:23;;;;;;;17.13;11.25;;;2.30;99.90;;;;;;5071731;28;20055;-48
2020/12/21 01:13:50;;;;;;;15.45;11.25;;;2.40;99.90;;;;;;5070966;28;20513;-47
2020/12/21 01:16:20;;;;;;;19.08;12.52;;;2.50;99.90;;;;;;5070848;28;20397;-47
2020/12/21 01:18:48;;;;;;;15.05;11.13;;;2.50;99.90;;;;;;5072049;28;20501;-47
2020/12/21 01:21:35;;;;;;;22.42;13.43;;;2.50;99.90;;;;;;5079301;28;20044;-46
2020/12/21 01:24:02;;;;;;;27.48;14.90;;;2.50;99.90;;;;;;5071874;28;20056;-47
2020/12/21 01:26:29;;;;;;;33.35;18.23;;;2.40;99.90;;;;;;5070181;28;20119;-47
2020/12/21 01:28:56;;;;;;;34.47;18.83;;;2.20;99.90;;;;;;5070453;28;20053;-48
2020/12/21 01:31:23;;;;;;;37.67;20.98;;;2.10;99.90;;;;;;5066400;28;20056;-47
2020/12/21 01:34:00;;;;;;;37.33;20.45;;;1.90;99.90;;;;;;5072577;28;20053;-48
2020/12/21 01:36:26;;;;;;;33.92;17.52;;;1.90;99.90;;;;;;5068573;28;20060;-47
2020/12/21 01:38:53;;;;;;;32.60;17.08;;;1.90;99.90;;;;;;5055261;28;20044;-47
2020/12/21 01:41:19;;;;;;;45.70;18.50;;;1.90;99.90;;;;;;5070921;28;20049;-46
2020/12/21 01:43:46;;;;;;;32.40;14.18;;;1.90;99.90;;;;;;5070388;28;20055;-46
2020/12/21 01:46:14;;;;;;;246.82;24.08;;;2.00;99.90;;;;;;5060536;28;20056;-46
2020/12/21 01:48:43;;;;;;;34.35;18.45;;;1.90;99.90;;;;;;5065930;28;20714;-47
2020/12/21 01:51:24;;;;;;;38.92;19.80;;;1.80;99.90;;;;;;5070293;28;20496;-46
2020/12/21 01:53:51;;;;;;;37.72;19.90;;;1.70;99.90;;;;;;5068092;28;20591;-47
2020/12/21 01:56:19;;;;;;;83.70;17.92;;;1.70;99.90;;;;;;5080188;28;20048;-47
2020/12/21 01:58:47;;;;;;;34.17;15.65;;;1.70;99.90;;;;;;5063266;28;20049;-47
2020/12/21 02:01:15;;;;;;;26.08;13.80;;;1.70;99.90;;;;;;5065919;28;20064;-46
2020/12/21 02:03:43;;;;;;;30.05;15.88;;;1.80;99.90;;;;;;5077751;28;20044;-46
2020/12/21 02:06:11;;;;;;;29.65;14.48;;;1.80;99.90;;;;;;5069303;28;20052;-46
2020/12/21 02:08:38;;;;;;;16.42;11.35;;;1.90;99.90;;;;;;5064411;28;20552;-48
2020/12/21 02:11:05;;;;;;;15.13;10.30;;;2.00;99.90;;;;;;5068571;28;20047;-47
2020/12/21 02:13:31;;;;;;;14.48;9.55;;;2.10;99.90;;;;;;5069066;28;20049;-46
2020/12/21 02:16:00;;;;;;;16.08;11.13;;;2.10;99.90;;;;;;5070364;28;20493;-46
2020/12/21 02:18:28;;;;;;;14.23;9.07;;;2.10;99.90;;;;;;5068736;28;20079;-46
2020/12/21 02:20:54;;;;;;;14.25;8.93;;;2.20;99.90;;;;;;5057528;28;20053;-46
2020/12/21 02:23:21;;;;;;;15.30;11.10;;;2.20;99.90;;;;;;5063218;28;20041;-46
2020/12/21 02:25:47;;;;;;;32.78;18.48;;;2.10;99.90;;;;;;5072189;28;20401;-46
2020/12/21 02:28:15;;;;;;;36.78;20.80;;;1.80;99.90;;;;;;5066302;28;20053;-46
2020/12/21 02:30:41;;;;;;;31.38;18.35;;;1.50;99.90;;;;;;5063637;28;20060;-46
2020/12/21 02:33:08;;;;;;;31.92;18.55;;;1.40;99.90;;;;;;5070590;28;20052;-47
2020/12/21 02:35:35;;;;;;;67.15;18.42;;;1.20;99.90;;;;;;5080623;28;20130;-47
2020/12/21 02:38:07;;;;;;;35.15;16.98;;;1.20;99.90;;;;;;5058368;28;20049;-47
2020/12/21 02:40:35;;;;;;;33.47;12.48;;;1.10;99.90;;;;;;5065090;28;20063;-47
2020/12/21 02:43:17;;;;;;;26.50;15.05;;;1.10;99.90;;;;;;5070726;28;20043;-46
2020/12/21 02:45:44;;;;;;;74.63;12.70;;;1.20;99.90;;;;;;5070734;28;20049;-47
2020/12/21 02:48:11;;;;;;;70.20;11.07;;;1.20;99.90;;;;;;5068287;28;20485;-47
2020/12/21 02:50:38;;;;;;;104.60;14.35;;;1.30;99.90;;;;;;5069434;28;20051;-47
2020/12/21 02:53:04;;;;;;;19.30;12.40;;;1.40;99.90;;;;;;5067447;28;20067;-47
2020/12/21 02:55:31;;;;;;;18.88;10.93;;;1.30;99.90;;;;;;5071733;28;20511;-47
2020/12/21 02:57:57;;;;;;;14.85;9.50;;;1.50;99.90;;;;;;5068507;28;20041;-46
2020/12/21 03:00:23;;;;;;;11.50;8.50;;;1.60;99.90;;;;;;5087069;28;20062;-46
2020/12/21 03:02:50;;;;;;;40.53;15.85;;;1.70;99.90;;;;;;5066779;28;20041;-46
2020/12/21 03:05:16;;;;;;;61.17;14.43;;;1.60;99.90;;;;;;5077228;28;20619;-47
2020/12/21 03:07:43;;;;;;;16.98;11.07;;;1.30;99.90;;;;;;5069401;28;20045;-46
2020/12/21 03:10:10;;;;;;;14.50;10.23;;;1.20;99.90;;;;;;5075672;28;20051;-47
2020/12/21 03:12:36;;;;;;;13.57;8.80;;;1.30;99.90;;;;;;5073062;28;20411;-46
2020/12/21 03:15:04;;;;;;;11.50;7.57;;;1.50;99.90;;;;;;5072546;28;20075;-47
2020/12/21 03:17:30;;;;;;;15.45;9.95;;;1.60;99.90;;;;;;5072194;28;20048;-46
2020/12/21 03:19:57;;;;;;;14.23;10.55;;;1.50;99.90;;;;;;5069292;28;20048;-46
2020/12/21 03:22:23;;;;;;;13.27;9.88;;;1.50;99.90;;;;;;5075019;28;20068;-47
2020/12/21 03:24:50;;;;;;;9.68;6.90;;;1.40;99.90;;;;;;5073802;28;20055;-47
2020/12/21 03:27:16;;;;;;;14.63;10.15;;;1.40;99.90;;;;;;5063725;28;20044;-46
2020/12/21 03:29:44;;;;;;;11.57;8.65;;;1.30;99.90;;;;;;5075239;28;20040;-46
2020/12/21 03:32:10;;;;;;;8.77;6.93;;;1.40;99.90;;;;;;5073208;28;20507;-47
2020/12/21 03:34:37;;;;;;;13.65;7.35;;;1.40;99.90;;;;;;5067185;28;20052;-47
2020/12/21 03:37:05;;;;;;;23.15;9.93;;;1.50;99.90;;;;;;5069617;28;20477;-46
2020/12/21 03:39:32;;;;;;;19.83;11.88;;;1.50;99.90;;;;;;5073763;28;20080;-47
2020/12/21 03:41:58;;;;;;;21.88;13.95;;;1.40;99.90;;;;;;5065644;28;20053;-46
2020/12/21 03:44:25;;;;;;;21.83;12.48;;;1.10;99.90;;;;;;5064004;28;20488;-46
2020/12/21 03:46:51;;;;;;;13.43;9.32;;;1.10;99.90;;;;;;5065617;28;20057;-47
2020/12/21 03:49:18;;;;;;;14.05;9.48;;;1.10;99.90;;;;;;5065990;28;20055;-47
2020/12/21 03:51:45;;;;;;;14.38;9.32;;;1.10;99.90;;;;;;5069003;28;20044;-47
2020/12/21 03:54:11;;;;;;;62.42;13.88;;;1.20;99.90;;;;;;5072174;28;20140;-47
2020/12/21 03:56:41;;;;;;;35.20;12.00;;;1.00;99.90;;;;;;5060397;28;20068;-46
2020/12/21 03:59:08;;;;;;;31.85;8.52;;;0.80;99.90;;;;;;5069980;28;20494;-46
2020/12/21 04:01:36;;;;;;;8.85;6.20;;;0.80;99.90;;;;;;5069730;28;20567;-47
2020/12/21 04:04:07;;;;;;;23.40;3.78;;;0.80;99.90;;;;;;5066931;28;20056;-47
2020/12/21 04:06:34;;;;;;;6.72;4.35;;;0.80;99.90;;;;;;5077828;28;20048;-47
2020/12/21 04:09:02;;;;;;;25.67;6.50;;;0.80;99.90;;;;;;5079003;28;20044;-47
2020/12/21 04:11:29;;;;;;;18.67;7.00;;;0.60;99.90;;;;;;5068844;28;20059;-47
2020/12/21 04:13:55;;;;;;;32.42;4.57;;;0.40;99.90;;;;;;5073402;28;20490;-47
2020/12/21 04:16:22;;;;;;;23.55;3.95;;;0.30;99.90;;;;;;5071937;28;20053;-47
2020/12/21 04:18:48;;;;;;;25.25;3.38;;;0.20;99.90;;;;;;5079135;28;20492;-46
2020/12/21 04:21:15;;;;;;;6.78;1.48;;;0.10;99.90;;;;;;5072584;28;20051;-47
2020/12/21 04:23:42;;;;;;;12.20;2.08;;;0.10;99.90;;;;;;5072314;28;20350;-47
2020/12/21 04:26:08;;;;;;;22.45;2.72;;;0.20;99.90;;;;;;5056301;28;20053;-47
2020/12/21 04:28:38;;;;;;;27.30;2.38;;;0.30;99.90;;;;;;5069740;28;20048;-47
2020/12/21 04:31:06;;;;;;;54.35;4.53;;;0.30;99.90;;;;;;5074924;28;20064;-47
2020/12/21 04:33:33;;;;;;;5.28;3.75;;;0.30;99.90;;;;;;5065965;28;20049;-46
2020/12/21 04:36:14;;;;;;;129.27;7.80;;;0.50;99.90;;;;;;5061082;28;20045;-46
2020/12/21 04:38:42;;;;;;;39.13;4.32;;;0.60;99.90;;;;;;5063870;28;20048;-46
2020/12/21 04:41:10;;;;;;;68.80;4.68;;;0.70;99.90;;;;;;5074274;28;20057;-47
2020/12/21 04:43:37;;;;;;;93.15;7.00;;;0.60;99.90;;;;;;5073986;28;20044;-47
2020/12/21 04:46:07;;;;;;;8.15;2.83;;;0.70;99.90;;;;;;5071670;28;20467;-47
2020/12/21 04:48:43;;;;;;;9.40;3.70;;;0.70;99.90;;;;;;5062736;28;20048;-47
2020/12/21 04:51:10;;;;;;;3.35;2.55;;;0.80;99.90;;;;;;5076230;28;20040;-46
2020/12/21 04:53:40;;;;;;;11.57;2.17;;;0.90;99.90;;;;;;5078277;28;20060;-46
2020/12/21 04:56:07;;;;;;;31.75;4.07;;;0.90;99.90;;;;;;5071981;28;20067;-46
2020/12/21 04:58:34;;;;;;;7.30;3.33;;;0.90;99.90;;;;;;5070430;28;20059;-47
2020/12/21 05:01:01;;;;;;;4.70;2.45;;;0.90;99.90;;;;;;5072250;28;20485;-47
2020/12/21 05:03:28;;;;;;;5.20;3.38;;;0.70;99.90;;;;;;5071447;28;20398;-46
2020/12/21 05:05:55;;;;;;;6.25;2.92;;;0.70;99.90;;;;;;5072346;28;20056;-46
2020/12/21 05:08:24;;;;;;;28.23;6.32;;;0.60;99.90;;;;;;5071825;28;20059;-47
2020/12/21 05:11:04;;;;;;;58.03;5.43;;;0.50;99.90;;;;;;5067701;28;20044;-46
2020/12/21 05:13:35;;;;;;;36.47;3.75;;;0.40;99.90;;;;;;5073423;28;20786;-46
2020/12/21 05:16:02;;;;;;;14.18;5.03;;;0.40;99.90;;;;;;5068414;28;20052;-47
2020/12/21 05:18:32;;;;;;;7.03;3.42;;;0.50;99.90;;;;;;5070862;28;20052;-47
2020/12/21 05:21:04;;;;;;;3.35;3.05;;;0.50;99.90;;;;;;5072725;28;20048;-46
2020/12/21 05:23:31;;;;;;;65.93;4.25;;;0.60;99.90;;;;;;5074977;28;20055;-47
2020/12/21 05:26:09;;;;;;;29.92;3.45;;;0.50;99.90;;;;;;5064714;28;20382;-46
2020/12/21 05:28:38;;;;;;;21.92;2.67;;;0.40;99.90;;;;;;5069148;28;20079;-47
2020/12/21 05:31:10;;;;;;;77.53;5.38;;;0.30;99.90;;;;;;5064401;28;20049;-46
2020/12/21 05:33:41;;;;;;;29.75;3.67;;;0.20;99.90;;;;;;5070179;28;20064;-47
2020/12/21 05:36:10;;;;;;;6.88;3.08;;;0.10;99.90;;;;;;5065194;28;20500;-46
2020/12/21 05:38:38;;;;;;;9.27;5.10;;;0.20;99.90;;;;;;5070648;28;20055;-46
2020/12/21 05:41:16;;;;;;;10.95;6.90;;;0.30;99.90;;;;;;5072151;28;20048;-46
2020/12/21 05:43:45;;;;;;;10.00;7.05;;;0.40;99.90;;;;;;5076923;28;20533;-46
2020/12/21 05:46:14;;;;;;;12.90;7.50;;;0.60;99.90;;;;;;5069188;28;20485;-46
2020/12/21 05:48:47;;;;;;;9.70;6.45;;;0.70;99.90;;;;;;5070707;28;20418;-46
2020/12/21 05:51:24;;;;;;;7.63;6.43;;;0.80;99.90;;;;;;5063900;28;20036;-47
2020/12/21 05:53:55;;;;;;;25.02;14.35;;;0.60;99.90;;;;;;5067221;28;20044;-46
2020/12/21 05:56:24;;;;;;;18.65;12.40;;;0.60;99.90;;;;;;5055268;28;20508;-46
2020/12/21 05:58:52;;;;;;;13.75;10.60;;;0.60;99.90;;;;;;5069187;28;20049;-46
2020/12/21 06:01:19;;;;;;;16.50;11.52;;;0.60;99.90;;;;;;5062455;28;20048;-46
2020/12/21 06:03:54;;;;;;;10.60;7.85;;;0.50;99.90;;;;;;5070594;28;20047;-46
2020/12/21 06:06:21;;;;;;;8.70;6.38;;;0.60;99.90;;;;;;5070675;28;20040;-47
2020/12/21 06:08:52;;;;;;;12.45;7.72;;;0.60;99.90;;;;;;5069948;28;20398;-47
2020/12/21 06:11:26;;;;;;;15.07;8.63;;;0.60;99.90;;;;;;5068490;28;20622;-47
2020/12/21 06:14:00;;;;;;;11.93;8.55;;;0.60;99.90;;;;;;5069405;28;20564;-47
2020/12/21 06:16:32;;;;;;;12.50;10.00;;;0.60;99.90;;;;;;5069068;28;20516;-46
2020/12/21 06:19:01;;;;;;;17.55;10.02;;;0.60;99.90;;;;;;5068148;28;20055;-47
2020/12/21 06:21:30;;;;;;;8.30;5.20;;;0.60;99.90;;;;;;5069657;28;20060;-47
2020/12/21 06:23:57;;;;;;;13.85;9.82;;;0.70;99.90;;;;;;5067550;28;20056;-47
2020/12/21 06:26:37;;;;;;;16.90;11.90;;;0.50;99.90;;;;;;5066843;28;20430;-48
2020/12/21 06:29:27;;;;;;;23.00;12.48;;;0.30;99.90;;;;;;5066156;28;20055;-48
2020/12/21 06:32:01;;;;;;;47.65;13.90;;;0.00;99.90;;;;;;5058039;28;20405;-48
2020/12/21 06:34:28;;;;;;;132.02;14.48;;;-0.10;99.90;;;;;;5069818;28;20573;-50
2020/12/21 06:37:11;;;;;;;55.63;13.60;;;-0.20;99.90;;;;;;5066645;28;20515;-47
2020/12/21 06:39:39;;;;;;;155.70;74.13;;;-0.30;99.90;;;;;;5069737;28;20103;-49
2020/12/21 06:42:09;;;;;;;93.22;24.55;;;-0.30;99.90;;;;;;5068047;28;20051;-48
2020/12/21 06:44:39;;;;;;;77.15;14.35;;;-0.40;99.90;;;;;;5069429;28;20047;-48
2020/12/21 06:47:07;;;;;;;92.70;12.50;;;-0.50;99.90;;;;;;5068382;28;20051;-48
2020/12/21 06:49:34;;;;;;;77.18;8.32;;;-0.60;99.90;;;;;;5066453;28;20055;-49
2020/12/21 06:52:01;;;;;;;54.15;8.93;;;-0.70;99.90;;;;;;5069691;28;20052;-48
2020/12/21 06:54:28;;;;;;;36.78;10.65;;;-0.60;99.90;;;;;;5068220;28;20076;-48
2020/12/21 06:56:55;;;;;;;46.28;7.85;;;-0.70;99.90;;;;;;5069916;28;20052;-48
2020/12/21 06:59:23;;;;;;;43.97;6.90;;;-0.60;99.90;;;;;;5069908;28;20056;-48
2020/12/21 07:01:52;;;;;;;51.85;5.72;;;-0.50;99.90;;;;;;5066377;28;20056;-47
2020/12/21 07:04:19;;;;;;;47.40;4.50;;;-0.40;99.90;;;;;;5065837;28;20045;-48
2020/12/21 07:06:47;;;;;;;47.97;1.55;;;-0.30;99.90;;;;;;5061516;28;20040;-48
2020/12/21 07:09:21;;;;;;;26.20;3.17;;;-0.30;99.90;;;;;;5070288;28;20053;-48
2020/12/21 07:12:02;;;;;;;7.38;1.70;;;-0.20;99.90;;;;;;5067641;28;20067;-48
2020/12/21 07:14:30;;;;;;;2.10;1.60;;;-0.10;99.90;;;;;;5053527;28;20463;-48
2020/12/21 07:17:07;;;;;;;5.93;1.15;;;0.10;99.90;;;;;;5065800;28;20061;-49
2020/12/21 07:19:42;;;;;;;2.30;1.30;;;0.20;99.90;;;;;;5059286;28;20056;-48
2020/12/21 07:22:11;;;;;;;4.07;1.27;;;0.40;99.90;;;;;;5069446;28;20097;-49
2020/12/21 07:24:39;;;;;;;3.33;1.33;;;0.40;99.90;;;;;;5066960;28;20565;-48
2020/12/21 07:27:06;;;;;;;3.30;1.70;;;0.50;99.90;;;;;;5051523;28;20056;-48
2020/12/21 07:29:33;;;;;;;7.90;3.53;;;0.70;99.90;;;;;;5065793;28;20045;-49
2020/12/21 07:32:00;;;;;;;84.35;10.57;;;0.70;99.90;;;;;;5055399;28;20057;-48
2020/12/21 07:34:28;;;;;;;44.10;14.30;;;0.50;99.90;;;;;;5052415;28;20136;-49
2020/12/21 07:36:56;;;;;;;58.30;12.52;;;0.20;99.90;;;;;;5066577;28;20408;-48
2020/12/21 07:39:23;;;;;;;20.10;11.35;;;0.20;99.90;;;;;;5055125;28;20045;-48
2020/12/21 07:41:53;;;;;;;17.30;9.98;;;0.20;99.90;;;;;;5068844;28;20060;-48
2020/12/21 07:44:27;;;;;;;14.82;8.73;;;0.40;99.90;;;;;;5051465;28;20446;-48
2020/12/21 07:47:13;;;;;;;8.77;7.50;;;0.60;99.90;;;;;;5061561;28;20049;-48
2020/12/21 07:49:42;;;;;;;12.82;8.27;;;0.70;99.90;;;;;;5060115;28;20048;-48
2020/12/21 07:52:10;;;;;;;20.00;9.52;;;0.80;99.90;;;;;;5065109;28;20044;-48
2020/12/21 07:54:44;;;;;;;24.50;14.50;;;0.90;99.90;;;;;;5064982;28;20071;-51
2020/12/21 07:57:14;;;;;;;26.40;13.27;;;0.80;99.90;;;;;;5054716;28;20482;-48
2020/12/21 07:59:42;;;;;;;26.00;16.10;;;0.40;99.90;;;;;;5071736;28;20053;-47
2020/12/21 08:02:09;;;;;;;32.78;15.18;;;0.20;99.90;;;;;;5071224;28;20493;-48
2020/12/21 08:04:36;;;;;;;50.00;30.60;;;0.00;99.90;;;;;;5072390;28;20057;-48
2020/12/21 08:07:11;;;;;;;16.77;8.45;;;0.00;99.90;;;;;;5071449;28;20397;-48
2020/12/21 08:09:40;;;;;;;16.83;11.65;;;0.20;99.90;;;;;;5056553;28;20205;-48
2020/12/21 08:12:13;;;;;;;20.02;13.65;;;0.50;99.90;;;;;;5069787;28;20059;-48
2020/12/21 08:14:45;;;;;;;16.05;9.43;;;0.70;99.90;;;;;;5072404;28;20053;-48
2020/12/21 08:17:19;;;;;;;16.33;10.45;;;0.90;99.90;;;;;;5064182;28;20059;-48
2020/12/21 08:19:56;;;;;;;13.35;7.78;;;1.00;99.90;;;;;;5062207;28;20052;-48
2020/12/21 08:22:24;;;;;;;13.35;8.30;;;1.20;99.90;;;;;;5057349;28;20057;-47
2020/12/21 08:25:06;;;;;;;12.50;7.75;;;1.30;99.90;;;;;;5069520;28;20048;-49
2020/12/21 08:27:33;;;;;;;10.20;7.72;;;1.50;99.90;;;;;;5065333;28;20057;-47
2020/12/21 08:30:26;;;;;;;11.43;7.45;;;1.60;99.90;;;;;;5064776;28;20486;-48
2020/12/21 08:32:55;;;;;;;38.38;22.58;;;1.70;99.90;;;;;;5060620;28;20045;-48
2020/12/21 08:35:23;;;;;;;88.13;53.92;;;1.50;99.90;;;;;;5072177;28;20055;-49
2020/12/21 08:37:50;;;;;;;77.88;46.33;;;1.20;99.90;;;;;;5070062;28;20044;-48
2020/12/21 08:40:19;;;;;;;108.90;63.35;;;1.00;99.90;;;;;;5064995;28;20067;-49
2020/12/21 08:42:46;;;;;;;63.38;35.22;;;0.90;99.90;;;;;;5069991;28;20055;-48
2020/12/21 08:45:20;;;;;;;41.67;24.67;;;1.10;99.90;;;;;;5070838;28;20040;-48
2020/12/21 08:47:48;;;;;;;27.27;17.40;;;1.00;99.90;;;;;;5060024;28;20049;-49
2020/12/21 08:50:16;;;;;;;15.05;8.45;;;1.30;99.90;;;;;;5064606;28;20059;-48
2020/12/21 08:52:43;;;;;;;11.90;7.55;;;1.70;99.90;;;;;;5056015;28;20041;-48
2020/12/21 08:55:09;;;;;;;2.75;1.10;;;2.20;99.90;;;;;;5069314;28;20051;-49
2020/12/21 08:57:40;;;;;;;5.15;3.10;;;2.40;99.90;;;;;;5070982;28;20079;-48
2020/12/21 09:00:07;;;;;;;21.23;13.55;;;2.80;99.90;;;;;;5065615;28;20068;-49
2020/12/21 09:02:33;;;;;;;20.67;13.93;;;2.90;99.90;;;;;;5065470;28;20049;-48
2020/12/21 09:05:00;;;;;;;23.23;14.15;;;3.00;99.90;;;;;;5065161;28;20037;-48
2020/12/21 09:07:35;;;;;;;52.47;25.73;;;3.00;99.90;;;;;;5062879;28;20059;-48
2020/12/21 09:10:03;;;;;;;53.05;33.75;;;3.00;99.90;;;;;;5072325;28;20045;-47
2020/12/21 09:12:30;;;;;;;41.30;24.67;;;2.90;99.90;;;;;;5070601;28;20079;-48
2020/12/21 09:14:56;;;;;;;30.42;17.73;;;2.80;99.90;;;;;;5071998;28;20409;-48
2020/12/21 09:17:23;;;;;;;30.00;16.33;;;2.40;99.90;;;;;;5066289;28;20052;-49
2020/12/21 09:19:49;;;;;;;21.70;13.80;;;2.40;99.90;;;;;;5060026;28;20044;-49
2020/12/21 09:22:16;;;;;;;19.35;12.05;;;2.50;99.90;;;;;;5059521;28;20049;-48
2020/12/21 09:24:42;;;;;;;7.22;5.45;;;3.20;99.90;;;;;;5064502;28;20056;-49
2020/12/21 09:27:09;;;;;;;4.45;2.30;;;3.80;99.90;;;;;;5054222;28;20048;-49
2020/12/21 09:29:35;;;;;;;0.75;0.70;;;3.80;99.90;;;;;;5068767;28;20047;-49
2020/12/21 09:32:02;;;;;;;0.65;0.60;;;3.70;99.90;;;;;;5069509;28;20056;-49
2020/12/21 09:34:29;;;;;;;2.00;1.52;;;3.60;99.90;;;;;;5071170;28;20141;-50
2020/12/21 09:36:55;;;;;;;4.85;1.85;;;3.90;99.90;;;;;;5068172;28;20494;-49
2020/12/21 09:39:23;;;;;;;13.52;7.85;;;4.20;99.90;;;;;;5070464;28;20056;-48
2020/12/21 09:41:52;;;;;;;21.52;7.93;;;4.40;99.90;;;;;;5069178;28;20045;-49
2020/12/21 09:44:20;;;;;;;11.80;8.57;;;4.60;99.90;;;;;;5070124;28;20045;-49
2020/12/21 09:46:50;;;;;;;7.13;5.57;;;4.80;99.90;;;;;;5067477;28;20094;-49
2020/12/21 09:49:17;;;;;;;5.93;3.60;;;5.00;99.90;;;;;;5054332;28;20055;-48
2020/12/21 09:51:48;;;;;;;13.77;9.85;;;5.00;99.90;;;;;;5063609;28;20045;-48
2020/12/21 09:54:14;;;;;;;20.70;11.55;;;5.00;99.90;;;;;;5059916;28;20503;-48
2020/12/21 09:56:46;;;;;;;27.77;16.77;;;4.90;99.90;;;;;;5071108;28;20535;-48
2020/12/21 09:59:13;;;;;;;25.20;16.73;;;5.00;99.90;;;;;;5068984;28;20511;-48
2020/12/21 10:01:40;;;;;;;27.08;16.98;;;4.90;99.90;;;;;;5070825;28;20057;-48
2020/12/21 10:04:06;;;;;;;22.23;14.55;;;4.90;99.90;;;;;;5070085;28;20404;-48
2020/12/21 10:06:33;;;;;;;20.75;12.95;;;4.90;99.90;;;;;;5069590;28;20517;-48
2020/12/21 10:09:00;;;;;;;19.65;12.50;;;5.00;99.90;;;;;;5068779;28;20075;-48
2020/12/21 10:11:26;;;;;;;26.00;13.50;;;5.10;99.90;;;;;;5069876;28;20056;-48
2020/12/21 10:13:53;;;;;;;20.77;11.93;;;5.20;99.90;;;;;;5070708;28;20055;-48
2020/12/21 10:16:19;;;;;;;21.05;12.05;;;5.40;99.90;;;;;;5068263;28;20052;-49
2020/12/21 10:18:46;;;;;;;12.95;8.50;;;5.50;99.90;;;;;;5070988;28;20044;-49
2020/12/21 10:21:12;;;;;;;19.02;11.07;;;5.60;99.90;;;;;;5067589;28;20616;-48
2020/12/21 10:23:39;;;;;;;31.85;16.42;;;5.70;99.90;;;;;;5070394;28;20132;-49
2020/12/21 10:26:06;;;;;;;19.50;12.07;;;5.70;99.90;;;;;;5053890;28;20048;-48
2020/12/21 10:28:32;;;;;;;14.45;10.02;;;5.90;99.90;;;;;;5066772;28;20041;-49
2020/12/21 10:30:58;;;;;;;19.33;9.27;;;6.10;99.90;;;;;;5069379;28;20040;-48
2020/12/21 10:33:25;;;;;;;9.90;7.78;;;6.60;99.90;;;;;;5068676;28;20044;-49
2020/12/21 10:35:52;;;;;;;23.58;15.00;;;6.80;99.90;;;;;;5058319;28;20079;-49
2020/12/21 10:38:18;;;;;;;22.65;14.32;;;6.90;99.90;;;;;;5067915;28;20055;-49
2020/12/21 10:40:45;;;;;;;12.02;8.82;;;7.00;99.90;;;;;;5068971;28;20145;-49
2020/12/21 10:43:11;;;;;;;22.75;15.23;;;7.20;99.90;;;;;;5063571;28;20049;-49
2020/12/21 10:45:38;;;;;;;37.60;22.90;;;7.50;99.90;;;;;;5069070;28;20041;-50
2020/12/21 10:48:05;;;;;;;21.13;13.20;;;7.60;99.90;;;;;;5059036;28;20048;-49
2020/12/21 10:50:32;;;;;;;23.60;15.27;;;8.00;99.90;;;;;;5060720;28;20048;-50
2020/12/21 10:52:59;;;;;;;13.57;10.25;;;8.30;99.90;;;;;;5068367;28;20669;-49
2020/12/21 10:55:25;;;;;;;20.42;13.88;;;8.40;99.90;;;;;;5064829;28;20096;-49
2020/12/21 10:57:52;;;;;;;13.90;11.38;;;8.30;99.90;;;;;;5067478;28;20146;-49
2020/12/21 11:00:18;;;;;;;16.90;12.40;;;8.10;99.90;;;;;;5068065;28;20075;-49
2020/12/21 11:02:45;;;;;;;31.38;21.95;;;8.20;99.90;;;;;;5065466;28;20049;-48
2020/12/21 11:05:11;;;;;;;12.40;8.35;;;8.30;99.90;;;;;;5069010;28;20052;-49
2020/12/21 11:07:38;;;;;;;14.90;8.00;;;8.60;99.90;;;;;;5069104;28;20051;-50
2020/12/21 11:10:09;;;;;;;2.67;0.90;;;9.00;99.90;;;;;;5068883;28;20131;-50
2020/12/21 11:12:36;;;;;;;12.80;8.68;;;9.20;99.90;;;;;;5066783;28;20040;-49
2020/12/21 11:15:04;;;;;;;15.98;8.10;;;9.50;99.90;;;;;;5054757;28;20057;-48
2020/12/21 11:17:31;;;;;;;23.60;14.48;;;9.50;99.90;;;;;;5068178;28;20056;-49
2020/12/21 11:20:00;;;;;;;3.45;1.80;;;9.50;99.90;;;;;;5059151;28;20064;-49
2020/12/21 11:22:27;;;;;;;9.95;4.63;;;9.80;99.90;;;;;;5065490;28;20051;-50
2020/12/21 11:24:54;;;;;;;2.28;1.05;;;9.90;99.90;;;;;;5067108;28;20052;-49
2020/12/21 11:27:21;;;;;;;3.15;1.50;;;10.00;99.90;;;;;;5069869;28;20048;-50
2020/12/21 11:29:48;;;;;;;6.90;2.85;;;10.10;99.90;;;;;;5065359;28;20044;-49
2020/12/21 11:32:25;;;;;;;23.15;16.15;;;10.30;99.90;;;;;;5079279;28;20093;-49
2020/12/21 11:34:51;;;;;;;2.38;1.40;;;10.60;99.90;;;;;;5072415;28;20071;-49
2020/12/21 11:37:18;;;;;;;1.98;1.73;;;10.60;99.90;;;;;;5070763;28;20041;-50
2020/12/21 11:39:45;;;;;;;3.80;2.85;;;10.70;99.90;;;;;;5072292;28;20055;-49
2020/12/21 11:42:12;;;;;;;4.53;1.92;;;10.80;99.90;;;;;;5068052;28;20393;-49
2020/12/21 11:44:39;;;;;;;2.92;2.05;;;11.00;99.90;;;;;;5073076;28;20048;-49
2020/12/21 11:47:12;;;;;;;2.85;1.15;;;11.00;99.90;;;;;;5068752;28;20041;-50
2020/12/21 11:49:41;;;;;;;;;;;11.10;99.90;;;;;;5072490;28;20044;-49
2020/12/21 11:52:08;;;;;;;1.67;0.70;;;11.10;99.90;;;;;;5067877;28;19925;-51
2020/12/21 11:54:34;;;;;;;1.67;0.90;;;11.30;99.90;;;;;;5069915;28;20052;-49
2020/12/21 11:57:02;;;;;;;1.80;0.70;;;11.50;99.90;;;;;;5072585;28;20044;-49
2020/12/21 11:59:29;;;;;;;2.28;1.30;;;11.60;99.90;;;;;;5071981;28;20127;-49
2020/12/21 12:01:57;;;;;;;2.85;0.70;;;11.60;99.90;;;;;;5072765;28;20145;-50
2020/12/21 12:04:24;;;;;;;5.10;1.00;;;11.70;99.90;;;;;;5071956;28;20520;-49
2020/12/21 12:06:53;;;;;;;2.55;0.80;;;11.80;99.90;;;;;;5063300;28;20044;-49
2020/12/21 12:09:26;;;;;;;1.38;1.02;;;11.80;99.90;;;;;;5057507;28;20076;-50
2020/12/21 12:11:53;;;;;;;2.42;0.90;;;11.90;99.90;;;;;;5073053;28;20044;-51
2020/12/21 12:14:20;;;;;;;2.75;0.95;;;11.90;99.90;;;;;;5065912;28;20045;-50
2020/12/21 12:16:47;;;;;;;1.35;0.80;;;11.90;99.90;;;;;;5060310;28;20073;-49
2020/12/21 12:19:14;;;;;;;2.25;1.45;;;12.00;99.90;;;;;;5072816;28;20048;-48
2020/12/21 12:21:41;;;;;;;1.02;0.93;;;12.00;99.90;;;;;;5071944;28;20436;-49
2020/12/21 12:24:08;;;;;;;0.95;0.70;;;12.00;99.90;;;;;;5073237;28;20044;-49
2020/12/21 12:26:35;;;;;;;1.20;0.80;;;12.00;99.90;;;;;;5068614;28;20053;-49
2020/12/21 12:29:02;;;;;;;2.20;0.85;;;12.10;99.90;;;;;;5057518;28;20497;-49
2020/12/21 12:31:29;;;;;;;1.10;1.00;;;12.10;99.90;;;;;;5072431;28;20131;-49
2020/12/21 12:33:55;;;;;;;2.03;0.85;;;12.10;99.90;;;;;;5072155;28;20052;-50
2020/12/21 12:36:24;;;;;;;1.27;1.00;;;12.20;99.90;;;;;;5069112;28;20044;-49
2020/12/21 12:38:52;;;;;;;1.55;0.90;;;12.20;99.90;;;;;;5070456;28;20052;-50
2020/12/21 12:41:19;;;;;;;2.85;1.20;;;12.20;99.90;;;;;;5070391;28;20044;-50
2020/12/21 12:43:46;;;;;;;1.88;1.02;;;12.20;99.90;;;;;;5069508;28;20048;-50
2020/12/21 12:46:13;;;;;;;1.90;1.05;;;12.10;99.90;;;;;;5060993;28;20063;-49
2020/12/21 12:48:40;;;;;;;2.92;1.27;;;12.20;99.90;;;;;;5078452;28;20063;-49
2020/12/21 12:51:09;;;;;;;2.20;1.17;;;12.10;99.90;;;;;;5080217;28;20477;-49